Terminal Aerodrome Forecast
Issued by NWS Wilmington, NC

Home | Current Version | Previous Version | Text Only | Print | Product List | Glossary On
Versions: 1 2 3 4 5 6 7 8 9 10 11 12 13 14
000
FTUS42 KILM 301720
TAFLBT
TAF
KLBT 301720Z 3018/3118 05006KT P6SM VCSH SCT045 BKN200
     FM301900 09008KT 6SM -SHRA BKN045
     FM302100 14005KT 5SM -SHRA BKN025
     FM310100 VRB03KT 4SM -RA BR BKN016
     FM311300 08004KT 5SM -SHRA BKN025=

USA.gov is the U.S. government's official web portal to all federal, state and local government web resources and services.